Time;durP1;ratioP1;P1;durP2;ratioP2;P2;SDS_P1;SDS_P2;PMS_P1;PMS_P2;Temp;Humidity;BMP_temperature;BMP_pressure;BME280_temperature;BME280_humidity;BME280_pressure;Samples;Min_cycle;Max_cycle;Signal;HPM_P1;HPM_P2
2023/09/19 00:00:41;;;;;;;13.60;10.90;;;;;;;17.68;53.72;100156.49;105516;1259;68710;-75
2023/09/19 00:03:09;;;;;;;13.40;10.50;;;;;;;17.66;53.89;100153.94;105795;1260;71457;-75
2023/09/19 00:05:44;;;;;;;12.90;10.40;;;;;;;17.63;53.95;100154.55;105397;1260;60097;-76
2023/09/19 00:08:15;;;;;;;16.60;12.00;;;;;;;17.59;54.05;100158.59;105674;1259;60026;-75
2023/09/19 00:10:43;;;;;;;14.40;10.90;;;;;;;17.56;54.07;100161.96;105277;1254;71298;-75
2023/09/19 00:13:14;;;;;;;13.40;11.30;;;;;;;17.53;54.11;100160.19;105565;1259;69297;-75
2023/09/19 00:15:48;;;;;;;17.10;11.40;;;;;;;17.51;54.16;100159.52;105324;1261;72693;-74
2023/09/19 00:18:20;;;;;;;12.70;11.30;;;;;;;17.48;54.28;100157.16;106012;1255;59571;-76
2023/09/19 00:20:51;;;;;;;12.80;10.60;;;;;;;17.46;54.29;100155.46;106670;1259;59699;-77
2023/09/19 00:23:20;;;;;;;13.30;11.00;;;;;;;17.44;54.25;100155.70;105430;1260;73032;-77
2023/09/19 00:25:48;;;;;;;13.90;11.00;;;;;;;17.43;54.29;100154.41;105826;1258;69183;-75
2023/09/19 00:28:17;;;;;;;17.10;11.30;;;;;;;17.43;54.30;100158.42;105524;1258;72626;-75
2023/09/19 00:30:49;;;;;;;13.80;10.70;;;;;;;17.42;54.20;100154.95;105720;1263;59610;-75
2023/09/19 00:33:19;;;;;;;14.30;11.30;;;;;;;17.42;54.32;100156.97;105836;1255;59774;-76
2023/09/19 00:35:47;;;;;;;12.70;10.60;;;;;;;17.40;54.29;100154.09;105901;1257;71486;-76
2023/09/19 00:38:21;;;;;;;14.50;11.50;;;;;;;17.39;54.41;100155.40;105860;1260;68706;-73
2023/09/19 00:40:48;;;;;;;15.20;10.90;;;;;;;17.37;54.42;100154.40;105631;1260;72654;-75
2023/09/19 00:43:16;;;;;;;14.40;10.80;;;;;;;17.36;54.46;100155.96;105753;1259;60029;-76
2023/09/19 00:45:47;;;;;;;13.20;10.10;;;;;;;17.33;54.46;100155.05;105720;1262;59660;-75
2023/09/19 00:48:17;;;;;;;14.30;10.70;;;;;;;17.32;54.47;100157.23;105738;1257;73111;-77
2023/09/19 00:50:45;;;;;;;15.20;10.80;;;;;;;17.31;54.45;100156.58;105833;1257;70138;-76
2023/09/19 00:53:20;;;;;;;15.50;10.30;;;;;;;17.30;54.50;100158.67;105896;1256;70726;-73
2023/09/19 00:55:48;;;;;;;12.90;10.10;;;;;;;17.28;54.64;100156.95;106372;1260;59722;-73
2023/09/19 00:58:17;;;;;;;13.50;10.40;;;;;;;17.26;54.62;100160.23;106156;1257;59621;-75
2023/09/19 01:00:45;;;;;;;12.20;10.30;;;;;;;17.24;54.56;100159.08;105716;1262;71945;-74
2023/09/19 01:03:13;;;;;;;14.80;10.80;;;;;;;17.23;54.61;100162.45;105722;1260;70327;-75
2023/09/19 01:05:42;;;;;;;11.40;10.20;;;;;;;17.22;54.53;100155.39;105894;1259;71956;-75
2023/09/19 01:08:11;;;;;;;13.90;10.20;;;;;;;17.21;54.59;100165.05;105635;1260;60027;-74
2023/09/19 01:10:44;;;;;;;13.60;10.30;;;;;;;17.19;54.69;100160.96;105708;1256;59968;-75
2023/09/19 01:13:31;;;;;;;14.60;10.20;;;;;;;17.18;54.66;100161.57;105665;1260;72990;-74
2023/09/19 01:16:12;;;;;;;13.30;10.20;;;;;;;17.16;54.69;100158.19;105370;1260;69297;-74
2023/09/19 01:18:49;;;;;;;12.50;10.20;;;;;;;17.13;54.70;100154.36;105652;1262;71673;-75
2023/09/19 01:21:19;;;;;;;12.40;10.30;;;;;;;17.09;54.70;100151.42;105504;1257;59824;-74
2023/09/19 01:23:56;;;;;;;10.90;9.70;;;;;;;17.07;54.82;100152.23;105284;1257;61229;-73
2023/09/19 01:26:50;;;;;;;11.70;9.80;;;;;;;17.03;55.01;100151.53;105559;1257;71838;-74
2023/09/19 01:29:39;;;;;;;13.50;10.30;;;;;;;16.98;55.14;100155.13;105245;1259;69958;-74
2023/09/19 01:32:07;;;;;;;14.50;10.80;;;;;;;16.94;55.18;100155.11;105536;1259;71443;-76
2023/09/19 01:34:48;;;;;;;12.90;10.80;;;;;;;16.91;55.35;100157.13;105728;1254;59647;-76
2023/09/19 01:37:19;;;;;;;14.80;10.90;;;;;;;16.87;55.34;100156.00;105963;1258;60125;-76
2023/09/19 01:39:48;;;;;;;14.30;11.00;;;;;;;16.84;55.44;100150.40;105903;1255;71835;-75
2023/09/19 01:42:19;;;;;;;13.00;9.90;;;;;;;16.81;55.46;100146.20;106021;1254;68944;-76
2023/09/19 01:44:47;;;;;;;12.80;10.80;;;;;;;16.77;55.70;100145.43;106250;1259;71630;-74
2023/09/19 01:47:38;;;;;;;11.30;9.70;;;;;;;16.75;55.65;100145.63;106080;1254;60505;-75
2023/09/19 01:50:23;;;;;;;11.10;9.60;;;;;;;16.72;55.71;100143.30;105564;1261;60322;-74
2023/09/19 01:53:04;;;;;;;14.70;10.30;;;;;;;16.70;55.80;100140.27;105618;1260;73755;-74
2023/09/19 01:55:36;;;;;;;13.20;11.30;;;;;;;16.67;55.93;100139.60;105566;1256;70329;-72
2023/09/19 01:58:17;;;;;;;;;;;;;;;16.64;56.01;100140.58;107412;1253;72751;-74
2023/09/19 02:00:45;;;;;;;15.00;11.60;;;;;;;16.61;56.08;100137.88;108626;1254;59367;-74
2023/09/19 02:03:13;;;;;;;14.00;10.70;;;;;;;16.59;56.13;100141.21;106661;1260;60386;-75
2023/09/19 02:05:44;;;;;;;14.40;9.70;;;;;;;16.58;56.26;100134.20;105408;1253;73019;-73
2023/09/19 02:08:11;;;;;;;15.40;10.70;;;;;;;16.57;56.25;100133.46;105256;1262;67994;-74
2023/09/19 02:10:41;;;;;;;14.80;11.00;;;;;;;16.55;56.36;100131.16;105765;1260;72557;-74
2023/09/19 02:13:08;;;;;;;11.70;9.80;;;;;;;16.53;56.42;100131.05;105678;1259;60316;-75
2023/09/19 02:15:36;;;;;;;13.60;10.20;;;;;;;16.50;56.46;100125.33;105592;1259;60542;-75
2023/09/19 02:18:05;;;;;;;12.10;10.20;;;;;;;16.48;56.56;100124.84;105608;1254;72112;-73
2023/09/19 02:20:33;;;;;;;11.60;10.40;;;;;;;16.46;56.68;100118.23;105411;1259;69363;-73
2023/09/19 02:23:00;;;;;;;18.60;11.10;;;;;;;16.44;56.66;100116.66;105591;1257;71697;-77
2023/09/19 02:25:28;;;;;;;15.80;10.60;;;;;;;16.42;56.66;100113.67;106070;1269;60466;-75
2023/09/19 02:27:58;;;;;;;11.80;10.30;;;;;;;16.41;56.91;100116.38;105724;1254;60608;-77
2023/09/19 02:30:26;;;;;;;11.30;10.00;;;;;;;16.38;57.10;100118.34;105905;1260;73949;-74
2023/09/19 02:32:54;;;;;;;12.10;10.80;;;;;;;16.35;57.26;100116.92;105440;1261;69496;-76
2023/09/19 02:35:22;;;;;;;11.30;10.10;;;;;;;16.33;57.43;100119.19;105594;1258;72782;-74
2023/09/19 02:37:50;;;;;;;14.20;10.20;;;;;;;16.29;57.54;100118.66;105521;1257;60415;-75
2023/09/19 02:40:25;;;;;;;13.10;10.20;;;;;;;16.27;57.55;100114.48;105430;1260;60537;-77
2023/09/19 02:42:54;;;;;;;14.30;10.00;;;;;;;16.25;57.71;100104.77;105569;1260;73869;-76
2023/09/19 02:45:23;;;;;;;12.90;10.30;;;;;;;16.22;57.69;100100.84;105668;1254;69992;-73
2023/09/19 02:47:51;;;;;;;11.10;10.00;;;;;;;16.20;57.79;100096.50;105849;1258;71933;-76
2023/09/19 02:50:18;;;;;;;13.70;10.50;;;;;;;16.18;58.03;100096.20;106394;1255;60531;-74
2023/09/19 02:52:49;;;;;;;12.30;10.80;;;;;;;16.16;58.26;100095.43;107820;1260;60743;-74
2023/09/19 02:55:19;;;;;;;14.50;10.60;;;;;;;16.13;58.36;100093.45;107389;1257;73096;-74
2023/09/19 02:57:56;;;;;;;13.10;10.20;;;;;;;16.11;58.47;100089.96;105837;1260;69054;-74
2023/09/19 03:00:24;;;;;;;12.10;10.60;;;;;;;16.08;58.59;100094.78;105734;1261;72718;-74
2023/09/19 03:02:54;;;;;;;16.70;10.30;;;;;;;16.05;58.94;100091.41;105436;1255;60511;-75
2023/09/19 03:05:23;;;;;;;13.90;9.90;;;;;;;16.03;58.96;100090.23;106045;1260;60048;-74
2023/09/19 03:07:51;;;;;;;12.40;10.50;;;;;;;16.02;59.29;100086.48;105498;1257;73090;-74
2023/09/19 03:10:20;;;;;;;16.40;10.40;;;;;;;16.00;59.52;100090.63;105608;1260;68228;-73
2023/09/19 03:12:47;;;;;;;14.20;11.10;;;;;;;15.99;59.59;100087.78;105724;1257;72736;-73
2023/09/19 03:15:15;;;;;;;12.20;10.00;;;;;;;15.98;59.81;100087.40;105355;1255;60519;-72
2023/09/19 03:17:49;;;;;;;13.30;10.20;;;;;;;15.96;59.91;100087.39;105453;1260;60442;-74
2023/09/19 03:20:20;;;;;;;16.80;10.00;;;;;;;15.95;60.23;100082.14;105532;1255;74236;-74
2023/09/19 03:22:49;;;;;;;14.00;10.50;;;;;;;15.94;60.13;100079.26;105568;1260;69537;-74
2023/09/19 03:25:17;;;;;;;11.90;10.40;;;;;;;15.94;60.34;100075.58;105565;1254;72470;-74
2023/09/19 03:27:49;;;;;;;11.80;9.30;;;;;;;15.93;60.38;100073.27;105627;1254;60541;-76
2023/09/19 03:30:17;;;;;;;13.20;10.60;;;;;;;15.92;60.47;100072.68;105909;1257;60446;-76
2023/09/19 03:32:49;;;;;;;14.10;10.10;;;;;;;15.91;60.63;100074.08;105942;1260;72612;-76
2023/09/19 03:35:18;;;;;;;;;;;;;;;15.91;60.77;100071.44;105675;1260;68126;-73
2023/09/19 03:37:45;;;;;;;11.70;9.60;;;;;;;15.90;60.96;100070.11;105628;1260;72696;-77
2023/09/19 03:40:14;;;;;;;14.20;10.70;;;;;;;15.88;60.98;100069.27;105697;1254;60529;-75
2023/09/19 03:42:41;;;;;;;11.30;9.80;;;;;;;15.87;61.18;100075.15;105643;1255;60481;-72
2023/09/19 03:45:12;;;;;;;14.10;10.90;;;;;;;15.86;61.20;100073.88;105476;1254;71508;-72
2023/09/19 03:47:47;;;;;;;13.50;10.40;;;;;;;15.85;61.41;100076.22;105618;1260;70359;-72
2023/09/19 03:50:17;;;;;;;14.40;10.60;;;;;;;15.85;61.63;100076.09;105451;1261;70839;-74
2023/09/19 03:52:45;;;;;;;16.10;10.40;;;;;;;15.84;61.76;100071.18;105777;1255;60418;-73
2023/09/19 03:55:13;;;;;;;13.00;10.90;;;;;;;15.85;61.99;100073.78;105722;1254;60550;-75
2023/09/19 03:57:40;;;;;;;13.40;11.10;;;;;;;15.85;62.06;100072.13;106321;1254;72881;-75
2023/09/19 04:00:11;;;;;;;12.00;10.30;;;;;;;15.85;62.14;100069.25;106219;1253;70131;-75
2023/09/19 04:02:40;;;;;;;16.20;10.50;;;;;;;15.85;62.32;100065.86;105830;1260;71231;-72
2023/09/19 04:05:09;;;;;;;13.10;10.10;;;;;;;15.85;62.75;100066.21;105542;1258;60631;-75
2023/09/19 04:07:36;;;;;;;11.70;9.90;;;;;;;15.86;62.80;100066.09;105454;1254;60484;-76
2023/09/19 04:10:04;;;;;;;12.60;10.50;;;;;;;15.88;62.78;100062.10;105721;1260;73170;-74
2023/09/19 04:12:32;;;;;;;12.00;10.60;;;;;;;15.90;62.74;100060.79;105485;1260;70098;-75
2023/09/19 04:15:00;;;;;;;16.40;11.10;;;;;;;15.90;62.75;100060.76;105805;1258;72460;-74
2023/09/19 04:17:28;;;;;;;12.90;10.90;;;;;;;15.91;62.82;100058.36;105386;1254;60442;-74
2023/09/19 04:19:56;;;;;;;12.80;10.50;;;;;;;15.92;62.95;100057.92;105351;1260;60490;-74
2023/09/19 04:22:23;;;;;;;16.90;11.40;;;;;;;15.92;62.93;100063.56;105604;1254;73915;-78
2023/09/19 04:24:50;;;;;;;16.50;12.10;;;;;;;15.92;62.94;100063.95;105753;1259;68881;-75
2023/09/19 04:27:18;;;;;;;13.50;11.90;;;;;;;15.91;62.94;100063.89;105672;1254;72692;-77
2023/09/19 04:29:46;;;;;;;13.70;10.90;;;;;;;15.90;63.06;100058.81;105495;1261;60523;-75
2023/09/19 04:32:13;;;;;;;14.60;11.10;;;;;;;15.91;62.67;100059.85;105800;1253;60611;-76
2023/09/19 04:34:40;;;;;;;12.80;11.20;;;;;;;15.91;62.93;100060.96;105454;1254;72763;-76
2023/09/19 04:37:08;;;;;;;18.60;11.90;;;;;;;15.92;62.81;100064.48;105429;1261;69694;-74
2023/09/19 04:39:35;;;;;;;18.50;11.40;;;;;;;15.94;62.83;100063.21;105332;1257;72454;-77
2023/09/19 04:42:04;;;;;;;13.20;11.10;;;;;;;15.93;63.08;100066.54;105421;1264;60477;-77
2023/09/19 04:44:31;;;;;;;18.70;12.40;;;;;;;15.92;63.02;100062.46;105794;1254;60541;-76
2023/09/19 04:46:59;;;;;;;13.50;11.90;;;;;;;15.94;62.99;100060.00;105434;1254;73941;-76
2023/09/19 04:49:27;;;;;;;15.80;12.20;;;;;;;15.94;62.89;100058.60;105644;1254;70284;-77
2023/09/19 04:51:55;;;;;;;15.00;11.10;;;;;;;15.95;62.84;100058.08;105725;1259;71453;-76
2023/09/19 04:54:23;;;;;;;13.20;11.10;;;;;;;15.97;62.76;100060.64;105598;1253;60835;-76
2023/09/19 04:56:50;;;;;;;17.70;11.80;;;;;;;15.98;62.71;100054.30;105945;1254;60406;-77
2023/09/19 04:59:17;;;;;;;16.40;11.90;;;;;;;16.01;62.67;100054.32;106061;1260;73842;-78
2023/09/19 05:01:45;;;;;;;15.10;12.50;;;;;;;16.04;62.50;100051.00;106489;1253;68723;-75
2023/09/19 05:04:13;;;;;;;14.40;11.70;;;;;;;16.07;62.51;100050.23;106949;1257;71260;-78
2023/09/19 05:06:40;;;;;;;14.40;12.10;;;;;;;16.10;62.41;100051.08;107530;1254;59188;-76
2023/09/19 05:09:11;;;;;;;13.10;11.50;;;;;;;16.15;62.27;100044.47;108212;1254;60932;-79
2023/09/19 05:11:38;;;;;;;14.70;12.10;;;;;;;16.20;62.16;100046.40;107100;1252;72558;-77
2023/09/19 05:14:06;;;;;;;14.90;10.80;;;;;;;16.28;62.01;100041.54;105910;1254;70055;-79
2023/09/19 05:16:34;;;;;;;13.70;12.10;;;;;;;16.34;61.76;100046.97;105880;1254;72225;-78
2023/09/19 05:19:02;;;;;;;13.10;11.60;;;;;;;16.40;61.93;100046.41;106006;1254;60875;-78
2023/09/19 05:21:30;;;;;;;15.50;11.20;;;;;;;16.45;61.62;100042.93;105573;1254;60477;-78
2023/09/19 05:23:58;;;;;;;16.20;10.90;;;;;;;16.50;61.63;100037.02;105559;1254;72603;-78
2023/09/19 05:26:25;;;;;;;13.50;11.20;;;;;;;16.57;61.47;100038.70;105577;1260;67751;-77
2023/09/19 05:28:53;;;;;;;13.90;11.20;;;;;;;16.63;61.36;100037.11;105626;1260;72652;-79
2023/09/19 05:31:20;;;;;;;14.00;11.00;;;;;;;16.71;61.26;100037.02;105717;1258;60549;-78
2023/09/19 05:33:48;;;;;;;15.00;11.80;;;;;;;16.76;61.22;100037.83;105646;1254;60618;-78
2023/09/19 05:36:15;;;;;;;15.20;11.50;;;;;;;16.79;61.12;100031.69;105724;1259;74199;-79
2023/09/19 05:38:44;;;;;;;16.60;12.20;;;;;;;16.83;61.17;100033.70;105876;1256;70189;-77
2023/09/19 05:41:13;;;;;;;17.80;13.80;;;;;;;16.88;61.01;100035.69;105933;1257;71400;-77
2023/09/19 05:43:41;;;;;;;16.20;12.10;;;;;;;16.95;61.02;100037.70;105734;1254;60586;-78
2023/09/19 05:46:09;;;;;;;15.30;11.00;;;;;;;17.00;61.07;100041.98;105742;1260;60455;-77
2023/09/19 05:48:39;;;;;;;17.40;11.00;;;;;;;17.04;60.95;100044.86;105703;1253;71699;-77
2023/09/19 05:51:07;;;;;;;16.10;11.10;;;;;;;17.11;60.91;100048.44;105831;1260;70101;-78
2023/09/19 05:53:34;;;;;;;14.80;11.20;;;;;;;17.18;60.83;100048.65;105902;1254;72758;-79
2023/09/19 05:56:02;;;;;;;12.40;11.10;;;;;;;17.26;60.70;100044.83;105950;1254;60467;-79
2023/09/19 05:58:29;;;;;;;12.40;10.30;;;;;;;17.34;60.36;100048.10;106634;1254;60533;-80
2023/09/19 06:00:57;;;;;;;16.10;11.80;;;;;;;17.39;60.17;100049.76;106379;1253;73011;-76
2023/09/19 06:03:26;;;;;;;16.20;11.80;;;;;;;17.44;60.04;100052.78;106214;1253;71267;-80
2023/09/19 06:05:57;;;;;;;13.10;10.90;;;;;;;17.51;59.81;100054.27;107074;1256;72262;-78
2023/09/19 06:08:25;;;;;;;15.70;12.20;;;;;;;17.55;59.74;100051.83;108736;1256;58970;-76
2023/09/19 06:10:53;;;;;;;15.30;10.20;;;;;;;17.62;59.60;100047.04;107284;1253;59389;-78
2023/09/19 06:13:21;;;;;;;14.30;10.80;;;;;;;17.71;59.47;100052.82;107460;1253;73911;-77
2023/09/19 06:15:49;;;;;;;13.60;10.50;;;;;;;17.78;59.20;100051.79;107881;1258;68891;-78
2023/09/19 06:18:19;;;;;;;14.10;11.00;;;;;;;17.82;59.03;100049.83;106934;1253;72458;-77
2023/09/19 06:20:48;;;;;;;13.70;10.10;;;;;;;17.86;59.06;100049.33;106230;1260;60373;-80
2023/09/19 06:23:16;;;;;;;16.80;11.20;;;;;;;17.96;59.06;100049.48;106014;1253;60425;-80
2023/09/19 06:25:43;;;;;;;11.90;9.80;;;;;;;18.05;58.78;100048.36;105847;1253;73885;-78
2023/09/19 06:28:16;;;;;;;12.10;9.80;;;;;;;18.15;58.56;100052.21;105996;1257;69096;-80
2023/09/19 06:30:44;;;;;;;13.40;10.80;;;;;;;18.22;58.49;100050.02;105874;1253;72672;-80
2023/09/19 06:33:12;;;;;;;15.00;11.00;;;;;;;18.28;58.32;100050.09;105892;1256;60546;-80
2023/09/19 06:35:44;;;;;;;13.20;10.30;;;;;;;18.33;58.28;100042.70;106043;1253;60609;-79
2023/09/19 06:38:13;;;;;;;10.60;9.50;;;;;;;18.42;58.25;100045.86;105924;1258;73884;-80
2023/09/19 06:40:42;;;;;;;13.00;10.60;;;;;;;18.52;58.17;100047.53;105915;1256;69146;-80
2023/09/19 06:43:10;;;;;;;13.20;10.40;;;;;;;18.58;58.02;100043.98;105895;1259;71174;-79
2023/09/19 06:45:37;;;;;;;15.50;9.80;;;;;;;18.64;57.92;100039.27;105822;1254;60391;-80
2023/09/19 06:48:05;;;;;;;12.20;9.40;;;;;;;18.69;57.89;100044.39;106021;1260;60349;-79
2023/09/19 06:50:34;;;;;;;12.50;9.20;;;;;;;18.73;57.93;100043.93;105943;1253;71812;-80
2023/09/19 06:53:02;;;;;;;12.20;8.70;;;;;;;18.75;58.02;100045.90;105950;1253;70397;-79
2023/09/19 06:55:31;;;;;;;10.10;8.40;;;;;;;18.79;58.00;100036.08;106475;1256;72750;-79
2023/09/19 06:58:00;;;;;;;12.30;9.60;;;;;;;18.84;58.14;100044.02;107236;1255;60449;-78
2023/09/19 07:00:28;;;;;;;11.90;9.40;;;;;;;18.91;58.16;100046.80;106357;1253;60364;-80
2023/09/19 07:02:57;;;;;;;13.50;8.10;;;;;;;18.96;58.25;100050.59;106527;1253;72953;-79
2023/09/19 07:05:25;;;;;;;9.90;8.80;;;;;;;18.98;58.56;100057.29;106376;1253;69102;-79
2023/09/19 07:07:55;;;;;;;11.90;10.20;;;;;;;18.97;58.64;100047.89;106624;1253;71073;-80
2023/09/19 07:10:23;;;;;;;15.70;9.20;;;;;;;18.99;58.77;100049.99;106723;1259;60968;-80
2023/09/19 07:12:56;;;;;;;11.60;9.40;;;;;;;19.02;58.95;100045.59;106163;1253;60465;-79
2023/09/19 07:15:25;;;;;;;14.90;9.60;;;;;;;19.10;58.98;100044.66;106572;1253;72714;-78
2023/09/19 07:17:53;;;;;;;14.40;8.80;;;;;;;19.22;58.84;100047.56;107142;1253;69814;-78
2023/09/19 07:20:22;;;;;;;10.50;8.80;;;;;;;19.35;58.79;100039.48;108281;1253;71461;-80
2023/09/19 07:22:50;;;;;;;9.70;8.70;;;;;;;19.50;58.51;100053.92;108335;1260;60460;-79
2023/09/19 07:25:18;;;;;;;13.20;8.60;;;;;;;19.62;58.22;100045.64;107483;1253;60324;-79
2023/09/19 07:27:46;;;;;;;11.10;9.10;;;;;;;19.74;58.13;100041.19;106534;1253;74175;-78
2023/09/19 07:30:15;;;;;;;10.10;8.50;;;;;;;19.83;57.86;100041.09;106641;1253;69394;-78
2023/09/19 07:32:43;;;;;;;15.00;9.00;;;;;;;19.93;57.76;100036.33;106884;1253;71424;-80
2023/09/19 07:35:15;;;;;;;9.20;8.20;;;;;;;20.04;57.80;100040.62;107602;1253;60319;-79
2023/09/19 07:37:42;;;;;;;9.50;8.40;;;;;;;20.17;57.48;100042.89;107502;1253;60319;-79
2023/09/19 07:40:11;;;;;;;12.40;8.10;;;;;;;20.27;57.30;100039.27;109084;1253;73927;-78
2023/09/19 07:42:40;;;;;;;11.60;8.30;;;;;;;20.37;57.09;100038.14;106751;1254;68797;-77
2023/09/19 07:45:09;;;;;;;10.60;8.40;;;;;;;20.47;56.82;100043.08;106520;1256;75474;-78
2023/09/19 07:47:36;;;;;;;11.90;8.40;;;;;;;20.56;56.52;100034.64;106416;1253;62479;-79
2023/09/19 07:50:07;;;;;;;11.40;8.50;;;;;;;20.64;56.47;100038.52;106210;1253;60453;-79
2023/09/19 07:52:35;;;;;;;10.70;8.10;;;;;;;20.72;56.19;100036.10;106349;1259;73644;-78
2023/09/19 07:55:08;;;;;;;9.90;7.90;;;;;;;20.79;56.16;100022.95;106440;1253;70319;-78
2023/09/19 07:57:37;;;;;;;12.20;7.90;;;;;;;20.88;55.91;100022.55;106367;1253;73977;-79
2023/09/19 08:00:06;;;;;;;10.40;7.10;;;;;;;20.94;55.54;100010.33;106399;1259;60472;-78
2023/09/19 08:02:41;;;;;;;12.00;7.70;;;;;;;21.06;55.34;100008.38;106443;1257;60436;-79
2023/09/19 08:05:10;;;;;;;11.20;8.60;;;;;;;21.21;54.88;100015.05;106510;1259;74858;-79
2023/09/19 08:07:38;;;;;;;10.40;8.10;;;;;;;21.35;54.39;100002.30;106306;1258;71063;-77
2023/09/19 08:10:13;;;;;;;8.60;7.70;;;;;;;21.49;54.13;99993.20;106365;1254;72086;-79
2023/09/19 08:12:56;;;;;;;10.40;8.00;;;;;;;21.68;53.73;99996.66;106747;1256;60476;-78
2023/09/19 08:15:23;;;;;;;9.80;6.70;;;;;;;21.85;52.45;99993.08;106272;1254;60383;-78
2023/09/19 08:17:51;;;;;;;10.10;7.70;;;;;;;22.00;52.11;99982.28;106323;1253;72810;-78
2023/09/19 08:20:19;;;;;;;6.70;6.10;;;;;;;22.17;51.44;99977.45;106460;1254;70827;-78
2023/09/19 08:22:54;;;;;;;10.00;6.80;;;;;;;22.36;50.39;99981.77;106474;1256;72040;-78
2023/09/19 08:25:23;;;;;;;13.80;7.10;;;;;;;22.54;49.98;99975.30;106722;1260;59381;-77
2023/09/19 08:27:51;;;;;;;10.50;6.10;;;;;;;22.66;49.37;99963.17;108229;1253;58569;-79
2023/09/19 08:30:23;;;;;;;9.80;6.90;;;;;;;22.81;48.81;99960.66;107817;1253;72635;-78
2023/09/19 08:33:01;;;;;;;8.70;5.70;;;;;;;23.01;46.60;99974.93;106682;1259;71438;-79
2023/09/19 08:35:29;;;;;;;8.80;5.40;;;;;;;23.14;44.32;99966.39;106186;1257;73613;-79
2023/09/19 08:38:04;;;;;;;6.80;4.60;;;;;;;23.24;42.41;99986.94;106258;1254;60555;-78
2023/09/19 08:40:35;;;;;;;7.40;4.40;;;;;;;23.35;40.81;99980.94;106125;1253;60452;-76
2023/09/19 08:43:03;;;;;;;15.60;5.10;;;;;;;23.46;40.33;99972.21;106277;1254;73967;-77
2023/09/19 08:45:32;;;;;;;10.50;4.20;;;;;;;23.54;39.92;99964.25;106432;1260;69617;-76
2023/09/19 08:48:13;;;;;;;5.90;4.70;;;;;;;23.57;40.04;99970.37;106492;1254;72454;-75
2023/09/19 08:51:08;;;;;;;11.50;5.40;;;;;;;23.63;40.03;99959.94;106323;1254;62262;-77
2023/09/19 08:53:46;;;;;;;7.60;4.40;;;;;;;23.80;39.58;99981.75;106533;1253;60533;-78
2023/09/19 08:56:15;;;;;;;7.00;4.20;;;;;;;23.86;39.50;99968.48;106348;1253;72714;-76
2023/09/19 08:58:54;;;;;;;7.80;4.40;;;;;;;23.87;39.35;99946.14;106476;1255;69234;-77
2023/09/19 09:01:24;;;;;;;11.10;5.80;;;;;;;24.03;39.31;99933.54;107075;1253;73479;-76
2023/09/19 09:03:53;;;;;;;9.30;4.90;;;;;;;24.40;39.12;99932.94;107052;1255;61144;-78
2023/09/19 09:06:20;;;;;;;7.50;4.80;;;;;;;24.87;37.93;99945.81;107250;1253;59387;-78
2023/09/19 09:08:48;;;;;;;12.40;4.90;;;;;;;25.25;37.12;99950.83;106582;1254;72983;-77
2023/09/19 09:11:16;;;;;;;8.40;4.10;;;;;;;25.49;36.60;99951.02;106547;1257;69237;-78
2023/09/19 09:13:45;;;;;;;12.70;4.80;;;;;;;25.72;36.29;99929.17;106502;1253;71632;-78
2023/09/19 09:16:18;;;;;;;15.00;5.00;;;;;;;25.94;36.03;99938.40;105809;1260;60531;-77
2023/09/19 09:18:52;;;;;;;9.60;4.40;;;;;;;26.16;35.83;99953.14;105958;1253;60982;-78
2023/09/19 09:21:28;;;;;;;7.50;4.50;;;;;;;26.34;36.04;99927.17;105951;1257;75027;-78
2023/09/19 09:23:55;;;;;;;7.60;4.30;;;;;;;26.59;35.78;99939.35;105721;1260;70173;-77
2023/09/19 09:26:40;;;;;;;5.70;4.60;;;;;;;26.88;35.07;99924.14;105833;1253;71418;-78
2023/09/19 09:29:08;;;;;;;5.20;4.00;;;;;;;27.17;34.10;99944.69;106050;1257;60438;-78
2023/09/19 09:31:37;;;;;;;9.70;5.30;;;;;;;27.32;33.99;99935.83;106066;1259;60432;-77
2023/09/19 09:34:06;;;;;;;7.80;4.70;;;;;;;27.42;33.86;99918.67;107336;1255;72858;-78
2023/09/19 09:36:38;;;;;;;6.90;4.50;;;;;;;27.53;33.97;99914.17;107531;1253;69148;-77
2023/09/19 09:39:24;;;;;;;7.00;4.30;;;;;;;27.85;33.24;99938.45;107029;1253;71267;-78
2023/09/19 09:41:52;;;;;;;7.20;4.10;;;;;;;28.23;32.94;99911.92;105852;1253;60449;-78
2023/09/19 09:44:19;;;;;;;9.10;4.80;;;;;;;28.62;32.08;99932.65;105759;1256;319025;-77
2023/09/19 09:49:27;;;;;;;5.90;4.40;;;;;;;28.88;31.88;99907.69;102642;1292;602455;-77
2023/09/19 09:52:07;;;;;;;7.30;4.60;;;;;;;29.07;32.07;99901.02;105273;1269;60545;-77
2023/09/19 09:54:38;;;;;;;20.80;5.40;;;;;;;29.34;32.02;99895.98;105231;1266;60859;-79
2023/09/19 09:57:20;;;;;;;4.40;4.00;;;;;;;29.55;31.56;99901.17;105133;1272;70862;-79
2023/09/19 09:59:49;;;;;;;6.30;4.60;;;;;;;29.59;31.54;99903.05;105112;1267;70138;-78
2023/09/19 10:02:25;;;;;;;9.40;4.60;;;;;;;29.63;31.99;99885.32;105025;1270;185012;-78
2023/09/19 10:04:58;;;;;;;8.20;4.40;;;;;;;29.95;31.67;99878.92;105150;1267;60864;-80
2023/09/19 10:07:32;;;;;;;7.50;4.80;;;;;;;30.44;31.28;99886.66;105477;1265;59244;-79
2023/09/19 10:10:09;;;;;;;5.50;4.10;;;;;;;30.91;30.46;99889.83;105304;1265;69999;-78
2023/09/19 10:12:43;;;;;;;6.60;4.60;;;;;;;31.11;29.94;99902.00;105082;1266;70300;-78
2023/09/19 10:15:11;;;;;;;5.60;4.50;;;;;;;30.95;29.51;99906.29;105119;1266;71260;-79
2023/09/19 10:17:37;;;;;;;4.80;4.00;;;;;;;30.75;29.73;99893.09;105063;1265;59809;-78
2023/09/19 10:20:17;;;;;;;5.40;3.70;;;;;;;30.65;29.91;99872.91;105160;1265;60000;-77
2023/09/19 10:22:44;;;;;;;5.50;4.40;;;;;;;30.57;30.12;99874.72;105155;1269;72955;-78
2023/09/19 10:25:12;;;;;;;7.80;4.60;;;;;;;30.52;30.41;99874.80;105162;1269;70224;-78
2023/09/19 10:27:39;;;;;;;9.70;4.70;;;;;;;30.45;30.32;99881.65;105177;1269;71592;-78
2023/09/19 10:30:08;;;;;;;6.80;4.30;;;;;;;30.46;30.44;99871.45;105163;1269;59628;-78
2023/09/19 10:32:47;;;;;;;8.80;4.60;;;;;;;30.58;30.24;99874.05;105598;1260;59615;-77
2023/09/19 10:35:14;;;;;;;6.20;4.10;;;;;;;30.73;30.19;99880.84;105776;1261;73117;-77
2023/09/19 10:37:41;;;;;;;5.40;4.20;;;;;;;30.76;30.18;99879.85;105668;1257;70359;-79
2023/09/19 10:40:08;;;;;;;5.20;4.30;;;;;;;30.87;29.88;99869.10;105806;1260;73682;-79
2023/09/19 10:43:20;;;;;;;8.70;4.50;;;;;;;31.06;29.70;99867.85;107209;1257;59547;-79
2023/09/19 10:45:49;;;;;;;6.20;4.50;;;;;;;31.21;29.48;99888.17;106702;1257;59737;-76
2023/09/19 10:48:32;;;;;;;9.70;4.10;;;;;;;31.26;29.46;99861.07;105912;1257;71698;-78
2023/09/19 10:51:23;;;;;;;7.30;4.20;;;;;;;31.26;29.42;99852.18;105756;1262;69043;-78
2023/09/19 10:54:19;;;;;;;9.10;4.10;;;;;;;31.41;29.48;99841.80;105657;1260;72915;-77
2023/09/19 10:57:36;;;;;;;6.40;4.00;;;;;;;31.37;29.43;99855.70;105237;1263;60339;-76
2023/09/19 11:00:27;;;;;;;9.10;4.70;;;;;;;31.27;29.72;99843.38;105251;1263;59656;-78
2023/09/19 11:03:18;;;;;;;6.80;4.30;;;;;;;31.47;29.43;99833.95;105401;1266;73075;-77
2023/09/19 11:06:15;;;;;;;8.10;4.10;;;;;;;31.74;29.43;99837.18;105570;1257;70490;-78
2023/09/19 11:08:56;;;;;;;8.80;4.60;;;;;;;32.28;29.19;99836.99;105809;1259;73888;-78
2023/09/19 11:11:57;;;;;;;5.10;4.60;;;;;;;32.74;28.85;99820.35;105760;1257;60404;-77
2023/09/19 11:14:24;;;;;;;6.40;4.70;;;;;;;33.21;28.42;99823.89;105491;1257;61803;-77
2023/09/19 11:17:17;;;;;;;6.50;4.60;;;;;;;33.54;27.91;99834.45;105740;1262;73040;-77
2023/09/19 11:22:58;;;;;;;6.40;4.20;;;;;;;33.91;27.36;99830.89;105539;1257;73617;-78
2023/09/19 11:25:34;;;;;;;8.20;4.30;;;;;;;33.45;27.28;99830.00;105722;1261;60184;-78
2023/09/19 11:28:05;;;;;;;8.50;4.80;;;;;;;32.94;27.59;99836.12;105635;1260;62168;-77
2023/09/19 11:30:32;;;;;;;6.40;4.90;;;;;;;32.58;27.90;99824.44;105743;1257;74248;-76
2023/09/19 11:33:23;;;;;;;8.90;4.40;;;;;;;32.48;27.96;99811.39;105904;1257;70270;-80